地図

経路データ

SID SEASON NUMBER BASIN SUBBASIN NAME ISO_TIME NATURE LAT LON WMO_WIND WMO_PRES WMO_AGENCY TRACK_TYPE DIST2LAND LANDFALL IFLAG USA_AGENCY USA_ATCF_ID USA_LAT USA_LON USA_RECORD USA_STATUS USA_WIND USA_PRES USA_SSHS USA_R34_NE USA_R34_SE USA_R34_SW USA_R34_NW USA_R50_NE USA_R50_SE USA_R50_SW USA_R50_NW USA_R64_NE USA_R64_SE USA_R64_SW USA_R64_NW USA_POCI USA_ROCI USA_RMW USA_EYE TOKYO_LAT TOKYO_LON TOKYO_GRADE TOKYO_WIND TOKYO_PRES TOKYO_R50_DIR TOKYO_R50_LONG TOKYO_R50_SHORT TOKYO_R30_DIR TOKYO_R30_LONG TOKYO_R30_SHORT TOKYO_LAND CMA_LAT CMA_LON CMA_CAT CMA_WIND CMA_PRES HKO_LAT HKO_LON HKO_CAT HKO_WIND HKO_PRES NEWDELHI_LAT NEWDELHI_LON NEWDELHI_GRADE NEWDELHI_WIND NEWDELHI_PRES NEWDELHI_CI NEWDELHI_DP NEWDELHI_POCI REUNION_LAT REUNION_LON REUNION_TYPE REUNION_WIND REUNION_PRES REUNION_TNUM REUNION_CI REUNION_RMW REUNION_R34_NE REUNION_R34_SE REUNION_R34_SW REUNION_R34_NW REUNION_R50_NE REUNION_R50_SE REUNION_R50_SW REUNION_R50_NW REUNION_R64_NE REUNION_R64_SE REUNION_R64_SW REUNION_R64_NW BOM_LAT BOM_LON BOM_TYPE BOM_WIND BOM_PRES BOM_TNUM BOM_CI BOM_RMW BOM_R34_NE BOM_R34_SE BOM_R34_SW BOM_R34_NW BOM_R50_NE BOM_R50_SE BOM_R50_SW BOM_R50_NW BOM_R64_NE BOM_R64_SE BOM_R64_SW BOM_R64_NW BOM_ROCI BOM_POCI BOM_EYE BOM_POS_METHOD BOM_PRES_METHOD NADI_LAT NADI_LON NADI_CAT NADI_WIND NADI_PRES WELLINGTON_LAT WELLINGTON_LON WELLINGTON_WIND WELLINGTON_PRES DS824_LAT DS824_LON DS824_STAGE DS824_WIND DS824_PRES TD9636_LAT TD9636_LON TD9636_STAGE TD9636_WIND TD9636_PRES TD9635_LAT TD9635_LON TD9635_WIND TD9635_PRES TD9635_ROCI NEUMANN_LAT NEUMANN_LON NEUMANN_CLASS NEUMANN_WIND NEUMANN_PRES MLC_LAT MLC_LON MLC_CLASS MLC_WIND MLC_PRES USA_GUST BOM_GUST BOM_GUST_PER REUNION_GUST REUNION_GUST_PER USA_SEAHGT USA_SEARAD_NE USA_SEARAD_SE USA_SEARAD_SW USA_SEARAD_NW STORM_SPEED STORM_DIR
1929039S19057 1929 10 SI MM NOT_NAMED 1929-02-08 06:00:00 NR -18.7000 57.3000 reunion spur-split 158 158 _____O________ -1 -18.7000 57.3000 99 9.90000 1 0
1929039S19057 1929 10 SI MM NOT_NAMED 1929-02-08 09:00:00 NR -18.6725 57.2926 spur-split 158 158 _____P________ -1 -18.6725 57.2926 99 1 339
1929039S19057 1929 10 SI MM NOT_NAMED 1929-02-08 12:00:00 NR -18.6477 57.2751 spur-split 169 169 _____P________ -1 -18.6477 57.2751 99 1 310
1929039S19057 1929 10 SI MM NOT_NAMED 1929-02-08 15:00:00 NR -18.6281 57.2377 spur-split 170 170 _____P________ -1 -18.6281 57.2377 99 1 287
1929039S19057 1929 10 SI MM NOT_NAMED 1929-02-08 18:00:00 NR -18.6164 57.1703 spur-split 170 170 _____P________ -1 -18.6164 57.1703 99 2 274
1929039S19057 1929 10 SI MM NOT_NAMED 1929-02-08 21:00:00 NR -18.6153 57.0628 spur-split 172 172 _____P________ -1 -18.6153 57.0628 99 3 268
1929039S19057 1929 10 SI MM NOT_NAMED 1929-02-09 00:00:00 NR -18.6272 56.9054 spur-split 179 177 _____P________ -1 -18.6272 56.9054 99 4 264
1929039S19057 1929 10 SI MM NOT_NAMED 1929-02-09 03:00:00 NR -18.6546 56.6878 spur-split 177 177 _____P________ -1 -18.6546 56.6878 99 5 261
1929039S19057 1929 10 SI MM NOT_NAMED 1929-02-09 06:00:00 NR -18.7000 56.4000 reunion spur-split 194 194 _____O________ -1 -18.7000 56.4000 99 9.90000 6 260
1929039S19057 1929 10 SI MM NOT_NAMED 1929-02-09 09:00:00 NR -18.7643 56.0359 spur-split 214 214 _____P________ -1 -18.7643 56.0359 99 8 259
1929039S19057 1929 10 SI MM NOT_NAMED 1929-02-09 12:00:00 NR -18.8429 55.6063 spur-split 246 234 _____P________ -1 -18.8429 55.6063 99 9 259
1929039S19057 1929 10 SI MM NOT_NAMED 1929-02-09 15:00:00 NR -18.9301 55.1261 spur-split 235 225 _____P________ -1 -18.9301 55.1261 99 10 259
1929039S19057 1929 10 SI MM NOT_NAMED 1929-02-09 18:00:00 NR -19.0201 54.6106 spur-split 235 232 _____P________ -1 -19.0201 54.6106 99 10 260
1929039S19057 1929 10 SI MM NOT_NAMED 1929-02-09 21:00:00 NR -19.1074 54.0749 spur-split 246 246 _____P________ -1 -19.1074 54.0749 99 10 261
1929039S19057 1929 10 SI MM NOT_NAMED 1929-02-10 00:00:00 NR -19.1866 53.5343 spur-split 275 275 _____P________ -1 -19.1866 53.5343 99 10 262
1929039S19057 1929 10 SI MM NOT_NAMED 1929-02-10 03:00:00 NR -19.2525 53.0042 spur-split 305 305 _____P________ -1 -19.2525 53.0042 99 10 263
1929039S19057 1929 10 SI MM NOT_NAMED 1929-02-10 06:00:00 NR -19.3000 52.5000 reunion spur-split 346 309 _____O________ -1 -19.3000 52.5000 99 9.90000 9 264
1929039S19057 1929 10 SI MM NOT_NAMED 1929-02-10 09:00:00 NR -19.3390 52.0968 spur-split 309 274 _____P________ -1 -19.3390 52.0968 99 7 265
1929039S19057 1929 10 SI MM NOT_NAMED 1929-02-10 12:00:00 NR -19.3651 51.7146 spur-split 274 244 _____P________ -1 -19.3651 51.7146 99 7 267
1929039S19057 1929 10 SI MM NOT_NAMED 1929-02-10 15:00:00 NR -19.3756 51.3467 spur-split 234 204 _____P________ -1 -19.3756 51.3467 99 7 270
1929039S19057 1929 10 SI MM NOT_NAMED 1929-02-10 18:00:00 NR -19.3679 50.9869 spur-split 204 161 _____P________ -1 -19.3679 50.9869 99 7 273
1929039S19057 1929 10 SI MM NOT_NAMED 1929-02-10 21:00:00 NR -19.3393 50.6286 spur-split 161 130 _____P________ -1 -19.3393 50.6286 99 7 277
1929039S19057 1929 10 SI MM NOT_NAMED 1929-02-11 00:00:00 NR -19.2871 50.2656 spur-split 130 86 _____P________ -1 -19.2871 50.2656 99 7 281
1929039S19057 1929 10 SI MM NOT_NAMED 1929-02-11 03:00:00 NR -19.2082 49.8915 spur-split 86 43 _____P________ -1 -19.2082 49.8915 99 7 285
1929039S19057 1929 10 SI MM NOT_NAMED 1929-02-11 06:00:00 NR -19.1000 49.5000 reunion spur-split 43 0 _____O________ -1 -19.1000 49.5000 99 9.90000 8 290
1929039S19057 1929 10 SI MM NOT_NAMED 1929-02-11 09:00:00 NR -18.9154 49.0578 spur-split 0 0 _____P________ -1 -18.9154 49.0578 99 9 296
1929039S19057 1929 10 SI MM NOT_NAMED 1929-02-11 12:00:00 NR -18.6940 48.6000 spur-split 0 0 _____P________ -1 -18.6940 48.6000 99 10 298
1929039S19057 1929 10 SI MM NOT_NAMED 1929-02-11 15:00:00 NR -18.4501 48.1316 spur-split 0 0 _____P________ -1 -18.4501 48.1316 99 10 299
1929039S19057 1929 10 SI MM NOT_NAMED 1929-02-11 18:00:00 NR -18.1982 47.6576 spur-split 0 0 _____P________ -1 -18.1982 47.6576 99 10 299
1929039S19057 1929 10 SI MM NOT_NAMED 1929-02-11 21:00:00 NR -17.9527 47.1829 spur-split 0 0 _____P________ -1 -17.9527 47.1829 99 10 298
1929039S19057 1929 10 SI MM NOT_NAMED 1929-02-12 00:00:00 NR -17.7282 46.7121 spur-split 0 0 _____P________ -1 -17.7282 46.7121 99 10 295
1929039S19057 1929 10 SI MM NOT_NAMED 1929-02-12 03:00:00 NR -17.5391 46.2497 spur-split 0 0 _____P________ -1 -17.5391 46.2497 99 9 291
1929039S19057 1929 10 SI MM NOT_NAMED 1929-02-12 06:00:00 NR -17.4000 45.8000 reunion spur-split 0 0 _____O________ -1 -17.4000 45.8000 99 9.90000 9 284
1929039S19057 1929 10 SI MM NOT_NAMED 1929-02-12 09:00:00 NR -17.3127 45.3212 spur-split 0 0 _____P________ -1 -17.3127 45.3212 99 9 278
1929039S19057 1929 10 SI MM NOT_NAMED 1929-02-12 12:00:00 NR -17.2662 44.8454 spur-split 0 0 _____P________ -1 -17.2662 44.8454 99 9 273
1929039S19057 1929 10 SI MM NOT_NAMED 1929-02-12 15:00:00 NR -17.2612 44.3824 spur-split 0 0 _____P________ -1 -17.2612 44.3824 99 14 247
1929039S19057 1929 10 SI MM NOT_NAMED 1929-02-12 18:00:00 NR -17.8142 43.4619 spur-split 52 52 _____P________ -1 -17.2990 43.9418 99 17 236
1929039S19057 1929 10 SI MM NOT_NAMED 1929-02-12 21:00:00 NR -18.2412 42.8660 spur-split 116 116 _____P________ -1 -17.3806 43.5334 99 12 231
1929039S19057 1929 10 SI MM NOT_NAMED 1929-02-13 00:00:00 NR -18.5942 42.4615 spur-split 159 159 _____P________ -1 -17.5071 43.1670 99 9 225
1929039S19057 1929 10 SI MM NOT_NAMED 1929-02-13 03:00:00 NR -18.9008 42.1815 spur-split 197 197 _____P________ -1 -17.6798 42.8526 99 6 221
1929039S19057 1929 10 SI MM NOT_NAMED 1929-02-13 06:00:00 NR -19.0500 42.0500 reunion spur-split 211 221 _____O________ -1 -17.9000 42.6000 99 9.90000 4 217
1929039S19057 1929 10 SI MM NOT_NAMED 1929-02-13 09:00:00 NR -19.1905 41.9467 spur-split 238 238 _____P________ -1 -18.1251 42.4060 99 3 209
1929039S19057 1929 10 SI MM NOT_NAMED 1929-02-13 12:00:00 NR -19.3523 41.8732 spur-split 243 243 _____P________ -1 -18.3995 42.2715 99 4 198
1929039S19057 1929 10 SI MM NOT_NAMED 1929-02-13 15:00:00 NR -19.5377 41.8266 spur-split 255 251 _____P________ -1 -18.7198 42.1908 99 4 190
1929039S19057 1929 10 SI MM NOT_NAMED 1929-02-13 18:00:00 NR -19.7491 41.8041 spur-split 251 236 _____P________ -1 -19.0830 42.1583 99 5 181
1929039S19057 1929 10 SI MM NOT_NAMED 1929-02-13 21:00:00 NR -19.9887 41.8029 spur-split 236 221 _____P________ -1 -19.4859 42.1685 99 5 0
1929039S19057 1929 10 SI MM NOT_NAMED 1929-02-14 00:00:00 NR -20.2589 41.8204 spur-split 215 194 _____P________ -1 -19.9251 42.2159 99 6 176
1929039S19057 1929 10 SI MM NOT_NAMED 1929-02-14 03:00:00 NR -20.5619 41.8537 spur-split 188 175 _____P________ -1 -20.3976 42.2949 99 6 173
1929039S19057 1929 10 SI MM NOT_NAMED 1929-02-14 06:00:00 NR -20.9000 41.9000 reunion spur-split 175 164 _____O________ -1 -20.9000 42.4000 99 9.90000 7 174
1929039S19057 1929 10 SI MM NOT_NAMED 1929-02-14 09:00:00 NR -21.2841 41.9418 spur-split 164 135 _____P________ -1 -21.4601 42.4998 99 8 173
1929039S19057 1929 10 SI MM NOT_NAMED 1929-02-14 12:00:00 NR -21.7077 42.0005 spur-split 135 113 _____P________ -1 -22.0626 42.6338 99 9 172
1929039S19057 1929 10 SI MM NOT_NAMED 1929-02-14 15:00:00 NR -22.1614 42.0734 spur-split 113 108 _____P________ -1 -22.6902 42.7960 99 9 171
1929039S19057 1929 10 SI MM NOT_NAMED 1929-02-14 18:00:00 NR -22.6356 42.1577 spur-split 108 108 _____P________ -1 -23.3256 42.9799 99 10 170
1929039S19057 1929 10 SI MM NOT_NAMED 1929-02-14 21:00:00 NR -23.1210 42.2506 spur-split 117 117 _____P________ -1 -23.9516 43.1792 99 10 170
1929039S19057 1929 10 SI MM NOT_NAMED 1929-02-15 00:00:00 NR -23.6081 42.3490 spur-split 132 122 _____P________ -1 -24.5507 43.3870 99 10 169
1929039S19057 1929 10 SI MM NOT_NAMED 1929-02-15 03:00:00 NR -24.0875 42.4499 spur-split 129 120 _____P________ -1 -25.1059 43.5963 99 10 169
1929039S19057 1929 10 SI MM NOT_NAMED 1929-02-15 06:00:00 NR -24.5500 42.5500 reunion spur-split 120 120 _____O________ -1 -25.6000 43.8000 99 9.90000 9 171
1929039S19057 1929 10 SI MM NOT_NAMED 1929-02-15 09:00:00 NR -24.9868 42.6090 spur-split 129 129 _____P________ -1 -26.0204 43.9921 99 9 173
1929039S19057 1929 10 SI MM NOT_NAMED 1929-02-15 12:00:00 NR -25.4058 42.6593 spur-split 138 138 _____P________ -1 -26.3726 44.1725 99 8 174
1929039S19057 1929 10 SI MM NOT_NAMED 1929-02-15 15:00:00 NR -25.8081 42.7090 spur-split 158 158 _____P________ -1 -26.6663 44.3428 99 8 173
1929039S19057 1929 10 SI MM NOT_NAMED 1929-02-15 18:00:00 NR -26.1946 42.7667 spur-split 180 180 _____P________ -1 -26.9114 44.5045 99 8 171
1929039S19057 1929 10 SI MM NOT_NAMED 1929-02-15 21:00:00 NR -26.5661 42.8407 spur-split 215 215 _____P________ -1 -27.1176 44.6593 99 7 187
1929039S19057 1929 10 SI MM NOT_NAMED 1929-02-16 00:00:00 NR -26.8706 42.6729 spur-split 246 246 _____P________ -1 -27.2947 44.8089 99 7 209
1929039S19057 1929 10 SI MM NOT_NAMED 1929-02-16 03:00:00 NR -27.2065 42.4460 spur-split 291 291 _____P________ -1 -27.4522 44.9552 99 9 213
1929039S19057 1929 10 SI MM NOT_NAMED 1929-02-16 06:00:00 NR -27.6000 42.1400 reunion spur-split 343 343 _____O________ -1 -27.6000 45.1000 99 9.90000 11 213
1929039S19057 1929 10 SI MM NOT_NAMED 1929-02-16 09:00:00 NR -28.1233 41.7856 spur-split 405 405 ______________ -1 99 11 174
1929039S19057 1929 10 SI MM NOT_NAMED 1929-02-16 12:00:00 NR -28.6406 42.2690 spur-split 423 423 ______________ -1 99 14 138
1929039S19057 1929 10 SI MM NOT_NAMED 1929-02-16 15:00:00 NR -29.1422 42.8258 spur-split 452 452 ______________ -1 99 14 134
1929039S19057 1929 10 SI MM NOT_NAMED 1929-02-16 18:00:00 NR -29.6187 43.4307 spur-split 480 476 ______________ -1 99 14 131
1929039S19057 1929 10 SI MM NOT_NAMED 1929-02-16 21:00:00 NR -30.0611 44.0578 spur-split 513 511 ______________ -1 99 14 128
1929039S19057 1929 10 SI MM NOT_NAMED 1929-02-17 00:00:00 NR -30.4607 44.6800 spur-split 549 548 ______________ -1 99 13 126
1929039S19057 1929 10 SI MM NOT_NAMED 1929-02-17 03:00:00 NR -30.8096 45.2701 spur-split 580 580 ______________ -1 99 12 124
1929039S19057 1929 10 SI MM NOT_NAMED 1929-02-17 06:00:00 NR -31.1000 45.8000 reunion spur-split 614 614 ______________ -1 10 122
1929039S19057 1929 10 SI MM NOT_NAMED 1929-02-17 09:00:00 NR -31.3276 46.2479 spur-split 640 640 ______________ -1 8 120
1929039S19057 1929 10 SI MM NOT_NAMED 1929-02-17 12:00:00 NR -31.4985 46.6175 spur-split 667 667 ______________ -1 6 117
1929039S19057 1929 10 SI MM NOT_NAMED 1929-02-17 15:00:00 NR -31.6214 46.9193 spur-split 683 683 ______________ -1 5 114
1929039S19057 1929 10 SI MM NOT_NAMED 1929-02-17 18:00:00 NR -31.7045 47.1642 spur-split 700 700 ______________ -1 4 110
1929039S19057 1929 10 SI MM NOT_NAMED 1929-02-17 21:00:00 NR -31.7559 47.3634 spur-split 716 716 ______________ -1 3 104
1929039S19057 1929 10 SI MM NOT_NAMED 1929-02-18 00:00:00 NR -31.7837 47.5281 spur-split 718 718 ______________ -1 3 99
1929039S19057 1929 10 SI MM NOT_NAMED 1929-02-18 03:00:00 NR -31.7958 47.6698 spur-split 724 724 ______________ -1 2 94
1929039S19057 1929 10 SI MM NOT_NAMED 1929-02-18 06:00:00 NR -31.8000 47.8000 reunion spur-split 727 ______________ -1 2 92

IBTrACS Databaseについて

本データベースは、米国NOAAが公開する1842年以降の世界の熱帯低気圧のベストトラックデータアーカイブInternational Best Track Archive for Climate Stewardship (IBTrACS)を、ウェブで閲覧しやすい形式に変換したものです。

最終更新日:2021-11-26